CDT,Max TemperatureF,Mean TemperatureF,Min TemperatureF,Max Dew PointF,MeanDew PointF,Min DewpointF,Max Humidity, Mean Humidity, Min Humidity, Max Sea Level PressureIn, Mean Sea Level PressureIn, Min Sea Level PressureIn, Max VisibilityMiles, Mean VisibilityMiles, Min VisibilityMiles, Max Wind SpeedMPH, Mean Wind SpeedMPH, Max Gust SpeedMPH,PrecipitationIn, CloudCover, Events, WindDirDegrees
2013-4-1,31,21,11,17,12,6,80,67,53,30.38,30.34,30.28,10,10,10,15,7,17,0.00,0,,309
2013-4-2,32,22,12,17,14,8,88,69,49,30.42,30.38,30.32,10,10,7,7,4,9,0.00,1,,334
2013-4-3,43,31,19,33,23,12,84,74,63,30.37,30.14,29.95,10,9,5,32,16,40,0.00,1,,156
2013-4-4,35,28,21,26,23,16,78,71,64,30.32,30.22,30.06,10,10,10,23,13,26,0.00,0,,337
2013-4-5,35,26,17,28,20,13,84,70,56,30.31,30.11,29.80,10,9,2,23,12,32,T,5,Snow,103
2013-4-6,40,36,32,34,30,27,89,82,75,29.88,29.73,29.65,10,7,2,17,9,21,0.22,7,Rain,7
2013-4-7,38,36,33,31,29,28,89,80,70,29.93,29.85,29.79,10,7,2,17,6,20,0.33,8,Rain-Snow,83
2013-4-8,34,27,20,31,25,11,89,76,62,30.31,29.96,29.78,10,8,2,29,19,36,T,8,,10
2013-4-9,29,22,15,18,12,5,73,66,58,30.41,30.36,30.31,10,10,10,29,19,35,0.00,2,,3
2013-4-10,35,28,21,26,20,14,77,70,63,30.40,30.23,30.06,10,10,10,20,13,24,0.00,6,,7
2013-4-11,36,32,28,27,25,20,85,71,56,30.05,29.90,29.85,10,5,0,22,12,36,0.29,8,Fog-Snow,38
2013-4-12,34,31,28,28,26,23,92,84,75,29.94,29.88,29.83,10,4,0,18,13,36,0.06,8,Fog-Snow,354
2013-4-13,35,30,25,25,23,21,92,77,61,29.96,29.92,29.86,10,8,1,13,7,23,0.01,6,Snow,5
2013-4-14,35,31,27,31,26,19,92,77,61,29.93,29.65,29.49,10,4,0,30,17,38,0.64,7,Fog-Snow,70
2013-4-15,36,33,30,31,29,27,89,82,75,30.02,29.62,29.38,10,5,1,21,15,24,0.22,8,Snow,330
2013-4-16,37,31,25,29,25,19,85,75,64,30.40,30.22,29.99,10,10,10,21,9,23,0.00,7,,301
2013-4-17,35,32,29,31,29,27,92,85,78,30.42,30.26,30.12,10,3,0,18,9,23,0.16,8,Fog-Snow,348
2013-4-18,37,34,30,30,27,23,92,79,66,30.15,29.97,29.87,10,7,1,31,21,36,0.08,6,Snow,348
2013-4-19,36,31,25,25,21,17,75,67,59,30.12,29.95,29.83,10,10,9,29,19,33,0.00,0,,335
2013-4-20,36,28,19,23,18,13,77,58,38,30.26,30.22,30.13,10,10,10,18,8,29,0.00,1,,182
2013-4-21,42,36,30,36,30,24,85,77,69,30.22,30.07,29.96,10,9,2,28,16,37,0.03,7,Rain,211
2013-4-22,36,32,27,26,24,21,81,73,64,30.38,30.33,30.23,10,10,10,22,12,25,0.00,6,,346
2013-4-23,41,32,22,26,22,17,81,66,50,30.37,30.22,30.04,10,10,10,14,7,18,0.00,0,,275
2013-4-24,47,37,27,34,28,23,85,72,58,30.08,29.96,29.88,10,6,0,30,10,37,0.02,7,Snow,275
2013-4-25,47,37,26,35,27,21,85,69,53,30.16,30.07,29.94,10,10,10,24,12,32,0.00,2,,201
2013-4-26,66,50,33,42,37,29,89,65,40,30.09,30.01,29.88,10,10,9,15,6,20,0.00,0,,198
2013-4-27,73,57,40,49,42,32,76,60,44,30.06,29.89,29.73,10,10,10,28,15,32,T,1,Rain,177
2013-4-28,63,52,40,45,40,29,74,57,40,29.88,29.71,29.62,10,10,10,26,12,30,0.00,3,,260
2013-4-29,66,48,30,43,35,27,85,63,40,29.90,29.70,29.39,10,10,10,22,11,26,T,2,,149
2013-4-30,61,48,35,47,38,23,86,61,36,30.11,29.60,29.31,10,10,4,33,20,39,0.05,6,Rain,300